sensor_id;sensor_type;location;lat;lon;timestamp;temperature;humidity
20728;DHT22;10525;50.154;8.198;2023-02-11T00:00:43;1.80;99.90
20728;DHT22;10525;50.154;8.198;2023-02-11T00:03:09;1.90;99.90
20728;DHT22;10525;50.154;8.198;2023-02-11T00:05:36;2.00;99.90
20728;DHT22;10525;50.154;8.198;2023-02-11T00:08:03;2.00;99.90
20728;DHT22;10525;50.154;8.198;2023-02-11T00:10:30;2.20;99.90
20728;DHT22;10525;50.154;8.198;2023-02-11T00:12:58;2.30;99.90
20728;DHT22;10525;50.154;8.198;2023-02-11T00:15:25;2.30;99.90
20728;DHT22;10525;50.154;8.198;2023-02-11T00:17:51;2.20;99.90
20728;DHT22;10525;50.154;8.198;2023-02-11T00:20:18;2.20;99.90
20728;DHT22;10525;50.154;8.198;2023-02-11T00:22:45;2.20;99.90
20728;DHT22;10525;50.154;8.198;2023-02-11T00:25:11;2.20;99.90
20728;DHT22;10525;50.154;8.198;2023-02-11T00:27:38;2.30;99.90
20728;DHT22;10525;50.154;8.198;2023-02-11T00:30:07;2.30;99.90
20728;DHT22;10525;50.154;8.198;2023-02-11T00:32:34;2.50;99.90
20728;DHT22;10525;50.154;8.198;2023-02-11T00:35:00;2.60;99.90
20728;DHT22;10525;50.154;8.198;2023-02-11T00:37:27;2.60;99.90
20728;DHT22;10525;50.154;8.198;2023-02-11T00:39:54;2.70;99.90
20728;DHT22;10525;50.154;8.198;2023-02-11T00:42:20;2.70;99.90
20728;DHT22;10525;50.154;8.198;2023-02-11T00:44:47;2.80;99.90
20728;DHT22;10525;50.154;8.198;2023-02-11T00:47:15;2.80;99.90
20728;DHT22;10525;50.154;8.198;2023-02-11T00:49:42;2.90;99.90
20728;DHT22;10525;50.154;8.198;2023-02-11T00:52:08;2.90;99.90
20728;DHT22;10525;50.154;8.198;2023-02-11T00:54:35;2.90;99.90
20728;DHT22;10525;50.154;8.198;2023-02-11T00:57:02;3.00;99.90
20728;DHT22;10525;50.154;8.198;2023-02-11T00:59:28;2.90;99.90
20728;DHT22;10525;50.154;8.198;2023-02-11T01:01:55;2.90;99.90
20728;DHT22;10525;50.154;8.198;2023-02-11T01:04:23;3.00;99.90
20728;DHT22;10525;50.154;8.198;2023-02-11T01:06:50;3.00;99.90
20728;DHT22;10525;50.154;8.198;2023-02-11T01:09:16;3.00;99.90
20728;DHT22;10525;50.154;8.198;2023-02-11T01:11:44;3.00;99.90
20728;DHT22;10525;50.154;8.198;2023-02-11T01:14:10;3.10;99.90
20728;DHT22;10525;50.154;8.198;2023-02-11T01:16:37;3.10;99.90
20728;DHT22;10525;50.154;8.198;2023-02-11T01:19:04;3.10;99.90
20728;DHT22;10525;50.154;8.198;2023-02-11T01:21:32;3.10;99.90
20728;DHT22;10525;50.154;8.198;2023-02-11T01:23:59;3.10;99.90
20728;DHT22;10525;50.154;8.198;2023-02-11T01:26:25;3.10;99.90
20728;DHT22;10525;50.154;8.198;2023-02-11T01:28:52;3.20;99.90
20728;DHT22;10525;50.154;8.198;2023-02-11T01:31:19;3.20;99.90
20728;DHT22;10525;50.154;8.198;2023-02-11T01:33:46;3.20;99.90
20728;DHT22;10525;50.154;8.198;2023-02-11T01:36:13;3.20;99.90
20728;DHT22;10525;50.154;8.198;2023-02-11T01:38:41;3.20;99.90
20728;DHT22;10525;50.154;8.198;2023-02-11T01:41:11;3.20;99.90
20728;DHT22;10525;50.154;8.198;2023-02-11T01:43:40;3.30;99.90
20728;DHT22;10525;50.154;8.198;2023-02-11T01:46:22;3.30;99.90
20728;DHT22;10525;50.154;8.198;2023-02-11T01:48:54;3.30;99.90
20728;DHT22;10525;50.154;8.198;2023-02-11T01:51:25;3.30;99.90
20728;DHT22;10525;50.154;8.198;2023-02-11T01:53:54;3.30;99.90
20728;DHT22;10525;50.154;8.198;2023-02-11T01:56:43;3.30;99.90
20728;DHT22;10525;50.154;8.198;2023-02-11T01:59:33;3.30;99.90
20728;DHT22;10525;50.154;8.198;2023-02-11T02:02:07;3.30;99.90
20728;DHT22;10525;50.154;8.198;2023-02-11T02:04:38;3.30;99.90
20728;DHT22;10525;50.154;8.198;2023-02-11T02:07:10;3.30;99.90
20728;DHT22;10525;50.154;8.198;2023-02-11T02:09:42;3.30;99.90
20728;DHT22;10525;50.154;8.198;2023-02-11T02:12:10;3.30;99.90
20728;DHT22;10525;50.154;8.198;2023-02-11T02:14:38;3.40;99.90
20728;DHT22;10525;50.154;8.198;2023-02-11T02:17:05;3.30;99.90
20728;DHT22;10525;50.154;8.198;2023-02-11T02:20:02;3.30;99.90
20728;DHT22;10525;50.154;8.198;2023-02-11T02:22:54;3.40;99.90
20728;DHT22;10525;50.154;8.198;2023-02-11T02:25:56;3.30;99.90
20728;DHT22;10525;50.154;8.198;2023-02-11T02:28:41;3.30;99.90
20728;DHT22;10525;50.154;8.198;2023-02-11T02:31:35;3.30;99.90
20728;DHT22;10525;50.154;8.198;2023-02-11T02:34:08;3.30;99.90
20728;DHT22;10525;50.154;8.198;2023-02-11T02:36:44;3.30;99.90
20728;DHT22;10525;50.154;8.198;2023-02-11T02:39:17;3.30;99.90
20728;DHT22;10525;50.154;8.198;2023-02-11T02:41:46;3.30;99.90
20728;DHT22;10525;50.154;8.198;2023-02-11T02:44:14;3.30;99.90
20728;DHT22;10525;50.154;8.198;2023-02-11T02:46:41;3.20;99.90
20728;DHT22;10525;50.154;8.198;2023-02-11T02:49:12;3.20;99.90
20728;DHT22;10525;50.154;8.198;2023-02-11T02:51:54;3.20;99.90
20728;DHT22;10525;50.154;8.198;2023-02-11T02:57:40;3.10;99.90
20728;DHT22;10525;50.154;8.198;2023-02-11T03:00:16;3.10;99.90
20728;DHT22;10525;50.154;8.198;2023-02-11T03:02:53;3.10;99.90
20728;DHT22;10525;50.154;8.198;2023-02-11T03:05:29;3.00;99.90
20728;DHT22;10525;50.154;8.198;2023-02-11T03:08:02;3.00;99.90
20728;DHT22;10525;50.154;8.198;2023-02-11T03:10:35;3.00;99.90
20728;DHT22;10525;50.154;8.198;2023-02-11T03:13:04;2.90;99.90
20728;DHT22;10525;50.154;8.198;2023-02-11T03:15:37;2.90;99.90
20728;DHT22;10525;50.154;8.198;2023-02-11T03:18:06;2.90;99.90
20728;DHT22;10525;50.154;8.198;2023-02-11T03:20:38;2.90;99.90
20728;DHT22;10525;50.154;8.198;2023-02-11T03:23:11;2.90;99.90
20728;DHT22;10525;50.154;8.198;2023-02-11T03:25:43;2.90;99.90
20728;DHT22;10525;50.154;8.198;2023-02-11T03:28:14;2.90;99.90
20728;DHT22;10525;50.154;8.198;2023-02-11T03:30:46;2.90;99.90
20728;DHT22;10525;50.154;8.198;2023-02-11T03:33:18;2.90;99.90
20728;DHT22;10525;50.154;8.198;2023-02-11T03:35:52;3.00;99.90
20728;DHT22;10525;50.154;8.198;2023-02-11T03:38:23;3.00;99.90
20728;DHT22;10525;50.154;8.198;2023-02-11T03:40:53;3.00;99.90
20728;DHT22;10525;50.154;8.198;2023-02-11T03:43:24;3.10;99.90
20728;DHT22;10525;50.154;8.198;2023-02-11T03:45:52;3.00;99.90
20728;DHT22;10525;50.154;8.198;2023-02-11T03:48:23;3.00;99.90
20728;DHT22;10525;50.154;8.198;2023-02-11T03:50:53;3.00;99.90
20728;DHT22;10525;50.154;8.198;2023-02-11T03:53:21;3.00;99.90
20728;DHT22;10525;50.154;8.198;2023-02-11T03:55:50;2.90;99.90
20728;DHT22;10525;50.154;8.198;2023-02-11T03:58:17;2.80;99.90
20728;DHT22;10525;50.154;8.198;2023-02-11T04:00:44;2.80;99.90
20728;DHT22;10525;50.154;8.198;2023-02-11T04:03:11;2.70;99.90
20728;DHT22;10525;50.154;8.198;2023-02-11T04:05:38;2.70;99.90
20728;DHT22;10525;50.154;8.198;2023-02-11T04:08:07;2.60;99.90
20728;DHT22;10525;50.154;8.198;2023-02-11T04:10:34;2.50;99.90
20728;DHT22;10525;50.154;8.198;2023-02-11T04:13:00;2.40;99.90
20728;DHT22;10525;50.154;8.198;2023-02-11T04:15:27;2.30;99.90
20728;DHT22;10525;50.154;8.198;2023-02-11T04:17:54;2.20;99.90
20728;DHT22;10525;50.154;8.198;2023-02-11T04:20:21;2.10;99.90
20728;DHT22;10525;50.154;8.198;2023-02-11T04:22:47;2.00;99.90
20728;DHT22;10525;50.154;8.198;2023-02-11T04:25:15;2.00;99.90
20728;DHT22;10525;50.154;8.198;2023-02-11T04:27:42;1.90;99.90
20728;DHT22;10525;50.154;8.198;2023-02-11T04:30:10;2.00;99.90
20728;DHT22;10525;50.154;8.198;2023-02-11T04:32:37;1.90;99.90
20728;DHT22;10525;50.154;8.198;2023-02-11T04:35:05;1.90;99.90
20728;DHT22;10525;50.154;8.198;2023-02-11T04:37:32;1.80;99.90
20728;DHT22;10525;50.154;8.198;2023-02-11T04:39:58;1.80;99.90
20728;DHT22;10525;50.154;8.198;2023-02-11T04:42:26;1.80;99.90
20728;DHT22;10525;50.154;8.198;2023-02-11T04:44:53;1.80;99.90
20728;DHT22;10525;50.154;8.198;2023-02-11T04:47:20;1.90;99.90
20728;DHT22;10525;50.154;8.198;2023-02-11T04:49:46;1.80;99.90
20728;DHT22;10525;50.154;8.198;2023-02-11T04:52:13;1.70;99.90
20728;DHT22;10525;50.154;8.198;2023-02-11T04:54:40;1.60;99.90
20728;DHT22;10525;50.154;8.198;2023-02-11T04:57:06;1.60;99.90
20728;DHT22;10525;50.154;8.198;2023-02-11T04:59:34;1.60;99.90
20728;DHT22;10525;50.154;8.198;2023-02-11T05:02:01;1.60;99.90
20728;DHT22;10525;50.154;8.198;2023-02-11T05:04:28;1.60;99.90
20728;DHT22;10525;50.154;8.198;2023-02-11T05:06:55;1.50;99.90
20728;DHT22;10525;50.154;8.198;2023-02-11T05:09:21;1.50;99.90
20728;DHT22;10525;50.154;8.198;2023-02-11T05:11:48;1.50;99.90
20728;DHT22;10525;50.154;8.198;2023-02-11T05:14:15;1.50;99.90
20728;DHT22;10525;50.154;8.198;2023-02-11T05:16:43;1.50;99.90
20728;DHT22;10525;50.154;8.198;2023-02-11T05:19:10;1.60;99.90
20728;DHT22;10525;50.154;8.198;2023-02-11T05:21:36;1.50;99.90
20728;DHT22;10525;50.154;8.198;2023-02-11T05:24:04;1.40;99.90
20728;DHT22;10525;50.154;8.198;2023-02-11T05:26:31;1.30;99.90
20728;DHT22;10525;50.154;8.198;2023-02-11T05:28:58;1.30;99.90
20728;DHT22;10525;50.154;8.198;2023-02-11T05:31:24;1.40;99.90
20728;DHT22;10525;50.154;8.198;2023-02-11T05:33:52;1.30;99.90
20728;DHT22;10525;50.154;8.198;2023-02-11T05:36:19;1.20;99.90
20728;DHT22;10525;50.154;8.198;2023-02-11T05:38:46;1.10;99.90
20728;DHT22;10525;50.154;8.198;2023-02-11T05:41:12;1.00;99.90
20728;DHT22;10525;50.154;8.198;2023-02-11T05:43:39;1.00;99.90
20728;DHT22;10525;50.154;8.198;2023-02-11T05:46:06;1.00;99.90
20728;DHT22;10525;50.154;8.198;2023-02-11T05:48:32;1.00;99.90
20728;DHT22;10525;50.154;8.198;2023-02-11T05:51:01;0.90;99.90
20728;DHT22;10525;50.154;8.198;2023-02-11T05:53:27;0.90;99.90
20728;DHT22;10525;50.154;8.198;2023-02-11T05:55:54;0.80;99.90
20728;DHT22;10525;50.154;8.198;2023-02-11T05:58:21;0.80;99.90
20728;DHT22;10525;50.154;8.198;2023-02-11T06:00:48;0.70;99.90
20728;DHT22;10525;50.154;8.198;2023-02-11T06:03:15;0.70;99.90
20728;DHT22;10525;50.154;8.198;2023-02-11T06:05:42;0.70;99.90
20728;DHT22;10525;50.154;8.198;2023-02-11T06:08:11;0.70;99.90
20728;DHT22;10525;50.154;8.198;2023-02-11T06:10:38;0.60;99.90
20728;DHT22;10525;50.154;8.198;2023-02-11T06:13:06;0.70;99.90
20728;DHT22;10525;50.154;8.198;2023-02-11T06:15:33;0.70;99.90
20728;DHT22;10525;50.154;8.198;2023-02-11T06:18:00;0.70;99.90
20728;DHT22;10525;50.154;8.198;2023-02-11T06:20:26;0.80;99.90
20728;DHT22;10525;50.154;8.198;2023-02-11T06:22:53;0.80;99.90
20728;DHT22;10525;50.154;8.198;2023-02-11T06:25:21;0.90;99.90
20728;DHT22;10525;50.154;8.198;2023-02-11T06:27:48;0.80;99.90
20728;DHT22;10525;50.154;8.198;2023-02-11T06:30:15;0.90;99.90
20728;DHT22;10525;50.154;8.198;2023-02-11T06:32:41;0.80;99.90
20728;DHT22;10525;50.154;8.198;2023-02-11T06:35:08;0.80;99.90
20728;DHT22;10525;50.154;8.198;2023-02-11T06:37:35;0.80;99.90
20728;DHT22;10525;50.154;8.198;2023-02-11T06:40:01;0.70;99.90
20728;DHT22;10525;50.154;8.198;2023-02-11T06:42:30;0.70;99.90
20728;DHT22;10525;50.154;8.198;2023-02-11T06:44:56;0.70;99.90
20728;DHT22;10525;50.154;8.198;2023-02-11T06:47:23;0.70;99.90
20728;DHT22;10525;50.154;8.198;2023-02-11T06:49:50;0.60;99.90
20728;DHT22;10525;50.154;8.198;2023-02-11T06:52:16;0.70;99.90
20728;DHT22;10525;50.154;8.198;2023-02-11T06:54:43;0.70;99.90
20728;DHT22;10525;50.154;8.198;2023-02-11T06:57:09;0.70;99.90
20728;DHT22;10525;50.154;8.198;2023-02-11T06:59:37;0.70;99.90
20728;DHT22;10525;50.154;8.198;2023-02-11T07:02:04;0.80;99.90
20728;DHT22;10525;50.154;8.198;2023-02-11T07:04:31;1.00;99.90
20728;DHT22;10525;50.154;8.198;2023-02-11T07:06:57;1.20;99.90
20728;DHT22;10525;50.154;8.198;2023-02-11T07:09:24;1.40;99.90
20728;DHT22;10525;50.154;8.198;2023-02-11T07:11:51;1.60;99.90
20728;DHT22;10525;50.154;8.198;2023-02-11T07:14:17;1.70;99.90
20728;DHT22;10525;50.154;8.198;2023-02-11T07:16:45;1.80;99.90
20728;DHT22;10525;50.154;8.198;2023-02-11T07:19:12;2.00;99.90
20728;DHT22;10525;50.154;8.198;2023-02-11T07:21:39;2.00;99.90
20728;DHT22;10525;50.154;8.198;2023-02-11T07:24:06;2.00;99.90
20728;DHT22;10525;50.154;8.198;2023-02-11T07:26:33;2.10;99.90
20728;DHT22;10525;50.154;8.198;2023-02-11T07:29:00;2.10;99.90
20728;DHT22;10525;50.154;8.198;2023-02-11T07:31:28;2.10;99.90
20728;DHT22;10525;50.154;8.198;2023-02-11T07:33:58;2.10;99.90
20728;DHT22;10525;50.154;8.198;2023-02-11T07:36:25;2.10;99.90
20728;DHT22;10525;50.154;8.198;2023-02-11T07:38:52;2.10;99.90
20728;DHT22;10525;50.154;8.198;2023-02-11T07:41:20;2.20;99.90
20728;DHT22;10525;50.154;8.198;2023-02-11T07:43:48;2.20;99.90
20728;DHT22;10525;50.154;8.198;2023-02-11T07:46:16;2.40;99.90
20728;DHT22;10525;50.154;8.198;2023-02-11T07:48:42;2.60;99.90
20728;DHT22;10525;50.154;8.198;2023-02-11T07:51:12;2.60;99.90
20728;DHT22;10525;50.154;8.198;2023-02-11T07:53:39;2.80;99.90
20728;DHT22;10525;50.154;8.198;2023-02-11T07:56:07;2.90;99.90
20728;DHT22;10525;50.154;8.198;2023-02-11T07:58:35;3.00;99.90
20728;DHT22;10525;50.154;8.198;2023-02-11T08:01:01;3.00;99.90
20728;DHT22;10525;50.154;8.198;2023-02-11T08:03:28;3.10;99.90
20728;DHT22;10525;50.154;8.198;2023-02-11T08:05:55;3.10;99.90
20728;DHT22;10525;50.154;8.198;2023-02-11T08:08:25;3.10;99.90
20728;DHT22;10525;50.154;8.198;2023-02-11T08:10:52;3.10;99.90
20728;DHT22;10525;50.154;8.198;2023-02-11T08:13:19;3.10;99.90
20728;DHT22;10525;50.154;8.198;2023-02-11T08:15:45;3.20;99.90
20728;DHT22;10525;50.154;8.198;2023-02-11T08:18:12;3.40;99.90
20728;DHT22;10525;50.154;8.198;2023-02-11T08:20:39;3.40;99.90
20728;DHT22;10525;50.154;8.198;2023-02-11T08:23:06;3.50;99.90
20728;DHT22;10525;50.154;8.198;2023-02-11T08:25:34;3.60;99.90
20728;DHT22;10525;50.154;8.198;2023-02-11T08:28:01;3.70;99.90
20728;DHT22;10525;50.154;8.198;2023-02-11T08:30:27;3.90;99.90
20728;DHT22;10525;50.154;8.198;2023-02-11T08:32:54;3.90;99.90
20728;DHT22;10525;50.154;8.198;2023-02-11T08:35:21;4.00;99.90
20728;DHT22;10525;50.154;8.198;2023-02-11T08:37:48;4.00;99.90
20728;DHT22;10525;50.154;8.198;2023-02-11T08:40:14;4.00;99.90
20728;DHT22;10525;50.154;8.198;2023-02-11T08:42:42;4.10;99.90
20728;DHT22;10525;50.154;8.198;2023-02-11T08:45:09;4.10;99.90
20728;DHT22;10525;50.154;8.198;2023-02-11T08:47:36;4.20;99.90
20728;DHT22;10525;50.154;8.198;2023-02-11T08:50:04;4.10;99.90
20728;DHT22;10525;50.154;8.198;2023-02-11T08:52:31;4.20;99.90
20728;DHT22;10525;50.154;8.198;2023-02-11T08:54:57;4.40;99.90
20728;DHT22;10525;50.154;8.198;2023-02-11T08:57:24;4.40;99.90
20728;DHT22;10525;50.154;8.198;2023-02-11T08:59:52;4.50;99.90
20728;DHT22;10525;50.154;8.198;2023-02-11T09:02:19;4.50;99.90
20728;DHT22;10525;50.154;8.198;2023-02-11T09:04:45;4.40;99.90
20728;DHT22;10525;50.154;8.198;2023-02-11T09:07:12;4.50;99.90
20728;DHT22;10525;50.154;8.198;2023-02-11T09:09:39;4.50;99.90
20728;DHT22;10525;50.154;8.198;2023-02-11T09:12:05;4.50;99.90
20728;DHT22;10525;50.154;8.198;2023-02-11T09:14:32;4.60;99.90
20728;DHT22;10525;50.154;8.198;2023-02-11T09:17:00;4.70;99.90
20728;DHT22;10525;50.154;8.198;2023-02-11T09:19:27;4.60;99.90
20728;DHT22;10525;50.154;8.198;2023-02-11T09:21:53;4.60;99.90
20728;DHT22;10525;50.154;8.198;2023-02-11T09:24:20;4.70;99.90
20728;DHT22;10525;50.154;8.198;2023-02-11T09:26:47;4.70;99.90
20728;DHT22;10525;50.154;8.198;2023-02-11T09:29:13;4.80;99.90
20728;DHT22;10525;50.154;8.198;2023-02-11T09:31:40;4.90;99.90
20728;DHT22;10525;50.154;8.198;2023-02-11T09:34:10;5.00;99.90
20728;DHT22;10525;50.154;8.198;2023-02-11T09:36:38;5.00;99.90
20728;DHT22;10525;50.154;8.198;2023-02-11T09:39:08;5.10;99.90
20728;DHT22;10525;50.154;8.198;2023-02-11T09:44:39;4.90;99.90
20728;DHT22;10525;50.154;8.198;2023-02-11T09:47:21;4.90;99.90
20728;DHT22;10525;50.154;8.198;2023-02-11T09:49:51;4.80;99.90
20728;DHT22;10525;50.154;8.198;2023-02-11T09:52:29;4.80;99.90
20728;DHT22;10525;50.154;8.198;2023-02-11T09:54:58;5.00;99.90
20728;DHT22;10525;50.154;8.198;2023-02-11T09:57:28;5.10;99.90
20728;DHT22;10525;50.154;8.198;2023-02-11T09:59:57;5.00;99.90
20728;DHT22;10525;50.154;8.198;2023-02-11T10:02:26;4.90;99.90
20728;DHT22;10525;50.154;8.198;2023-02-11T10:05:24;5.10;99.90
20728;DHT22;10525;50.154;8.198;2023-02-11T10:07:59;5.10;99.90
20728;DHT22;10525;50.154;8.198;2023-02-11T10:10:38;5.00;99.90
20728;DHT22;10525;50.154;8.198;2023-02-11T10:13:29;5.10;99.90
20728;DHT22;10525;50.154;8.198;2023-02-11T10:16:04;5.10;99.90
20728;DHT22;10525;50.154;8.198;2023-02-11T10:18:45;5.10;99.90
20728;DHT22;10525;50.154;8.198;2023-02-11T10:21:28;5.10;99.90
20728;DHT22;10525;50.154;8.198;2023-02-11T10:24:00;5.20;99.90
20728;DHT22;10525;50.154;8.198;2023-02-11T10:26:30;5.10;99.90
20728;DHT22;10525;50.154;8.198;2023-02-11T10:29:00;5.10;99.90
20728;DHT22;10525;50.154;8.198;2023-02-11T10:31:35;5.10;99.90
20728;DHT22;10525;50.154;8.198;2023-02-11T10:34:04;5.00;99.90
20728;DHT22;10525;50.154;8.198;2023-02-11T10:36:34;5.10;99.90
20728;DHT22;10525;50.154;8.198;2023-02-11T10:39:10;5.10;99.90
20728;DHT22;10525;50.154;8.198;2023-02-11T10:41:40;5.00;99.90
20728;DHT22;10525;50.154;8.198;2023-02-11T10:44:22;5.00;99.90
20728;DHT22;10525;50.154;8.198;2023-02-11T10:46:50;5.00;99.90
20728;DHT22;10525;50.154;8.198;2023-02-11T10:49:38;4.90;99.90
20728;DHT22;10525;50.154;8.198;2023-02-11T10:52:23;4.90;99.90
20728;DHT22;10525;50.154;8.198;2023-02-11T10:54:59;4.90;99.90
20728;DHT22;10525;50.154;8.198;2023-02-11T10:57:29;4.80;99.90
20728;DHT22;10525;50.154;8.198;2023-02-11T10:59:59;4.80;99.90
20728;DHT22;10525;50.154;8.198;2023-02-11T11:02:29;4.80;99.90
20728;DHT22;10525;50.154;8.198;2023-02-11T11:05:00;4.80;99.90
20728;DHT22;10525;50.154;8.198;2023-02-11T11:07:32;5.00;99.90
20728;DHT22;10525;50.154;8.198;2023-02-11T11:10:02;5.00;99.90
20728;DHT22;10525;50.154;8.198;2023-02-11T11:12:33;5.10;99.90
20728;DHT22;10525;50.154;8.198;2023-02-11T11:15:12;5.10;99.90
20728;DHT22;10525;50.154;8.198;2023-02-11T11:17:40;5.10;99.90
20728;DHT22;10525;50.154;8.198;2023-02-11T11:20:19;5.10;99.90
20728;DHT22;10525;50.154;8.198;2023-02-11T11:22:48;5.10;99.90
20728;DHT22;10525;50.154;8.198;2023-02-11T11:25:23;5.10;99.90
20728;DHT22;10525;50.154;8.198;2023-02-11T11:27:53;5.20;99.90
20728;DHT22;10525;50.154;8.198;2023-02-11T11:30:22;5.20;99.90
20728;DHT22;10525;50.154;8.198;2023-02-11T11:32:51;5.30;99.90
20728;DHT22;10525;50.154;8.198;2023-02-11T11:35:24;5.40;99.90
20728;DHT22;10525;50.154;8.198;2023-02-11T11:37:54;5.50;99.90
20728;DHT22;10525;50.154;8.198;2023-02-11T11:40:24;5.60;99.90
20728;DHT22;10525;50.154;8.198;2023-02-11T11:43:08;5.60;99.90
20728;DHT22;10525;50.154;8.198;2023-02-11T11:45:52;5.80;99.90
20728;DHT22;10525;50.154;8.198;2023-02-11T11:48:22;5.80;99.90
20728;DHT22;10525;50.154;8.198;2023-02-11T11:50:52;5.70;99.90
20728;DHT22;10525;50.154;8.198;2023-02-11T11:53:26;5.70;99.90
20728;DHT22;10525;50.154;8.198;2023-02-11T11:55:59;5.70;99.90
20728;DHT22;10525;50.154;8.198;2023-02-11T11:58:29;5.60;99.90
20728;DHT22;10525;50.154;8.198;2023-02-11T12:01:04;5.50;99.90
20728;DHT22;10525;50.154;8.198;2023-02-11T12:03:56;5.50;99.90
20728;DHT22;10525;50.154;8.198;2023-02-11T12:06:36;5.60;99.90
20728;DHT22;10525;50.154;8.198;2023-02-11T12:09:13;5.70;99.90
20728;DHT22;10525;50.154;8.198;2023-02-11T12:12:05;5.60;99.90
20728;DHT22;10525;50.154;8.198;2023-02-11T12:14:40;5.80;99.90
20728;DHT22;10525;50.154;8.198;2023-02-11T12:17:16;5.70;99.90
20728;DHT22;10525;50.154;8.198;2023-02-11T12:20:15;5.60;99.90
20728;DHT22;10525;50.154;8.198;2023-02-11T12:22:55;5.50;99.90
20728;DHT22;10525;50.154;8.198;2023-02-11T12:25:29;5.60;99.90
20728;DHT22;10525;50.154;8.198;2023-02-11T12:28:13;5.50;99.90
20728;DHT22;10525;50.154;8.198;2023-02-11T12:30:52;5.40;99.90
20728;DHT22;10525;50.154;8.198;2023-02-11T12:33:33;5.50;99.90
20728;DHT22;10525;50.154;8.198;2023-02-11T12:36:07;5.60;99.90
20728;DHT22;10525;50.154;8.198;2023-02-11T12:38:49;5.70;99.90
20728;DHT22;10525;50.154;8.198;2023-02-11T12:41:28;5.60;99.90
20728;DHT22;10525;50.154;8.198;2023-02-11T12:44:20;5.60;99.90
20728;DHT22;10525;50.154;8.198;2023-02-11T12:46:53;5.60;99.90
20728;DHT22;10525;50.154;8.198;2023-02-11T12:49:41;5.60;99.90
20728;DHT22;10525;50.154;8.198;2023-02-11T12:52:30;5.70;99.90
20728;DHT22;10525;50.154;8.198;2023-02-11T12:55:06;5.70;99.90
20728;DHT22;10525;50.154;8.198;2023-02-11T12:57:37;5.70;99.90
20728;DHT22;10525;50.154;8.198;2023-02-11T13:00:12;5.80;99.90
20728;DHT22;10525;50.154;8.198;2023-02-11T13:02:47;5.90;99.90
20728;DHT22;10525;50.154;8.198;2023-02-11T13:05:22;5.80;99.90
20728;DHT22;10525;50.154;8.198;2023-02-11T13:07:51;5.80;99.90
20728;DHT22;10525;50.154;8.198;2023-02-11T13:10:25;5.90;99.90
20728;DHT22;10525;50.154;8.198;2023-02-11T13:12:54;6.20;99.90
20728;DHT22;10525;50.154;8.198;2023-02-11T13:15:40;6.30;99.90
20728;DHT22;10525;50.154;8.198;2023-02-11T13:18:16;6.20;99.90
20728;DHT22;10525;50.154;8.198;2023-02-11T13:20:48;6.20;99.90
20728;DHT22;10525;50.154;8.198;2023-02-11T13:23:22;6.10;99.90
20728;DHT22;10525;50.154;8.198;2023-02-11T13:25:56;6.00;99.90
20728;DHT22;10525;50.154;8.198;2023-02-11T13:28:35;6.00;99.90
20728;DHT22;10525;50.154;8.198;2023-02-11T13:31:05;5.90;99.90
20728;DHT22;10525;50.154;8.198;2023-02-11T13:33:34;5.80;99.90
20728;DHT22;10525;50.154;8.198;2023-02-11T13:36:22;5.90;99.90
20728;DHT22;10525;50.154;8.198;2023-02-11T13:38:57;6.00;99.90
20728;DHT22;10525;50.154;8.198;2023-02-11T13:41:34;5.80;99.90
20728;DHT22;10525;50.154;8.198;2023-02-11T13:44:16;5.90;99.90
20728;DHT22;10525;50.154;8.198;2023-02-11T13:46:50;5.80;99.90
20728;DHT22;10525;50.154;8.198;2023-02-11T13:49:24;5.90;99.90
20728;DHT22;10525;50.154;8.198;2023-02-11T13:51:53;5.90;99.90
20728;DHT22;10525;50.154;8.198;2023-02-11T13:54:26;5.80;99.90
20728;DHT22;10525;50.154;8.198;2023-02-11T13:57:31;5.70;99.90
20728;DHT22;10525;50.154;8.198;2023-02-11T14:00:01;5.70;99.90
20728;DHT22;10525;50.154;8.198;2023-02-11T14:02:32;5.70;99.90
20728;DHT22;10525;50.154;8.198;2023-02-11T14:05:28;5.70;99.90
20728;DHT22;10525;50.154;8.198;2023-02-11T14:08:20;5.80;99.90
20728;DHT22;10525;50.154;8.198;2023-02-11T14:11:07;5.60;99.90
20728;DHT22;10525;50.154;8.198;2023-02-11T14:14:01;5.60;99.90
20728;DHT22;10525;50.154;8.198;2023-02-11T14:16:29;5.60;99.90
20728;DHT22;10525;50.154;8.198;2023-02-11T14:18:59;5.60;99.90
20728;DHT22;10525;50.154;8.198;2023-02-11T14:21:33;5.70;99.90
20728;DHT22;10525;50.154;8.198;2023-02-11T14:27:07;5.80;99.90
20728;DHT22;10525;50.154;8.198;2023-02-11T14:29:42;5.80;99.90
20728;DHT22;10525;50.154;8.198;2023-02-11T14:32:24;5.80;99.90
20728;DHT22;10525;50.154;8.198;2023-02-11T14:35:00;5.80;99.90
20728;DHT22;10525;50.154;8.198;2023-02-11T14:37:37;5.90;99.90
20728;DHT22;10525;50.154;8.198;2023-02-11T14:40:21;6.00;99.90
20728;DHT22;10525;50.154;8.198;2023-02-11T14:42:50;6.10;99.90
20728;DHT22;10525;50.154;8.198;2023-02-11T14:45:20;6.10;99.90
20728;DHT22;10525;50.154;8.198;2023-02-11T14:47:57;6.10;99.90
20728;DHT22;10525;50.154;8.198;2023-02-11T14:50:32;6.10;99.90
20728;DHT22;10525;50.154;8.198;2023-02-11T14:53:00;6.00;99.90
20728;DHT22;10525;50.154;8.198;2023-02-11T14:55:30;6.10;99.90
20728;DHT22;10525;50.154;8.198;2023-02-11T14:58:05;6.20;99.90
20728;DHT22;10525;50.154;8.198;2023-02-11T15:00:32;6.20;99.90
20728;DHT22;10525;50.154;8.198;2023-02-11T15:03:00;6.10;99.90
20728;DHT22;10525;50.154;8.198;2023-02-11T15:05:27;6.10;99.90
20728;DHT22;10525;50.154;8.198;2023-02-11T15:07:56;6.00;99.90
20728;DHT22;10525;50.154;8.198;2023-02-11T15:10:29;6.00;99.90
20728;DHT22;10525;50.154;8.198;2023-02-11T15:12:57;5.90;99.90
20728;DHT22;10525;50.154;8.198;2023-02-11T15:15:25;5.90;99.90
20728;DHT22;10525;50.154;8.198;2023-02-11T15:17:52;5.90;99.90
20728;DHT22;10525;50.154;8.198;2023-02-11T15:20:25;5.90;99.90
20728;DHT22;10525;50.154;8.198;2023-02-11T15:22:56;5.90;99.90
20728;DHT22;10525;50.154;8.198;2023-02-11T15:25:23;5.80;99.90
20728;DHT22;10525;50.154;8.198;2023-02-11T15:27:53;5.80;99.90
20728;DHT22;10525;50.154;8.198;2023-02-11T15:30:26;5.80;99.90
20728;DHT22;10525;50.154;8.198;2023-02-11T15:32:54;5.70;99.90
20728;DHT22;10525;50.154;8.198;2023-02-11T15:35:25;5.80;99.90
20728;DHT22;10525;50.154;8.198;2023-02-11T15:37:53;5.80;99.90
20728;DHT22;10525;50.154;8.198;2023-02-11T15:40:21;5.70;99.90
20728;DHT22;10525;50.154;8.198;2023-02-11T15:42:52;5.70;99.90
20728;DHT22;10525;50.154;8.198;2023-02-11T15:45:24;5.80;99.90
20728;DHT22;10525;50.154;8.198;2023-02-11T15:47:56;5.80;99.90
20728;DHT22;10525;50.154;8.198;2023-02-11T15:50:25;5.80;99.90
20728;DHT22;10525;50.154;8.198;2023-02-11T15:52:55;5.70;99.90
20728;DHT22;10525;50.154;8.198;2023-02-11T15:55:22;5.80;99.90
20728;DHT22;10525;50.154;8.198;2023-02-11T15:57:54;5.70;99.90
20728;DHT22;10525;50.154;8.198;2023-02-11T16:00:23;5.70;99.90
20728;DHT22;10525;50.154;8.198;2023-02-11T16:02:51;5.70;99.90
20728;DHT22;10525;50.154;8.198;2023-02-11T16:05:27;5.70;99.90
20728;DHT22;10525;50.154;8.198;2023-02-11T16:07:55;5.80;99.90
20728;DHT22;10525;50.154;8.198;2023-02-11T16:10:26;5.70;99.90
20728;DHT22;10525;50.154;8.198;2023-02-11T16:12:58;5.70;99.90
20728;DHT22;10525;50.154;8.198;2023-02-11T16:15:29;5.70;99.90
20728;DHT22;10525;50.154;8.198;2023-02-11T16:17:56;5.70;99.90